Time;durP1;ratioP1;P1;durP2;ratioP2;P2;SDS_P1;SDS_P2;PMS_P1;PMS_P2;Temp;Humidity;BMP_temperature;BMP_pressure;BME280_temperature;BME280_humidity;BME280_pressure;Samples;Min_cycle;Max_cycle;Signal;HPM_P1;HPM_P2
2022/10/15 00:00:17;;;;;;;0.80;0.80;;;;;;;;;;5072827;28;20213;-86
2022/10/15 00:02:44;;;;;;;0.90;0.90;;;;;;;;;;5072067;28;20704;-86
2022/10/15 00:05:11;;;;;;;0.77;0.77;;;;;;;;;;5072520;28;20701;-85
2022/10/15 00:07:40;;;;;;;1.10;0.80;;;;;;;;;;5056569;28;20720;-85
2022/10/15 00:10:07;;;;;;;0.70;0.70;;;;;;;;;;5052436;28;20766;-85
2022/10/15 00:12:34;;;;;;;1.47;0.70;;;;;;;;;;5052177;28;20233;-86
2022/10/15 00:15:01;;;;;;;1.20;0.80;;;;;;;;;;5052389;28;20233;-85
2022/10/15 00:17:28;;;;;;;2.00;0.70;;;;;;;;;;5052074;28;20237;-85
2022/10/15 00:19:55;;;;;;;0.80;0.80;;;;;;;;;;5052351;28;20600;-85
2022/10/15 00:22:22;;;;;;;0.60;0.60;;;;;;;;;;5051766;28;20234;-85
2022/10/15 00:24:51;;;;;;;0.80;0.80;;;;;;;;;;5052318;28;20221;-85
2022/10/15 00:27:18;;;;;;;0.80;0.80;;;;;;;;;;5051584;28;20233;-85
2022/10/15 00:29:45;;;;;;;0.70;0.70;;;;;;;;;;5052061;28;20210;-85
2022/10/15 00:32:12;;;;;;;1.23;1.13;;;;;;;;;;5052197;28;20232;-84
2022/10/15 00:34:39;;;;;;;0.70;0.70;;;;;;;;;;5052858;28;20229;-85
2022/10/15 00:37:06;;;;;;;0.97;0.97;;;;;;;;;;5068688;28;20206;-85
2022/10/15 00:39:33;;;;;;;1.30;1.13;;;;;;;;;;5068201;28;20197;-85
2022/10/15 00:42:02;;;;;;;0.90;0.90;;;;;;;;;;5072284;28;20205;-85
2022/10/15 00:44:48;;;;;;;2.47;1.10;;;;;;;;;;5072584;28;20587;-84
2022/10/15 00:47:17;;;;;;;2.57;0.90;;;;;;;;;;5072421;28;20213;-85
2022/10/15 00:49:47;;;;;;;1.07;0.90;;;;;;;;;;5072830;28;20209;-84
2022/10/15 00:52:16;;;;;;;0.90;0.90;;;;;;;;;;5072361;28;20212;-85
2022/10/15 00:54:45;;;;;;;2.13;1.03;;;;;;;;;;5072105;28;20236;-85
2022/10/15 00:57:14;;;;;;;1.23;0.90;;;;;;;;;;5071525;28;20181;-84
2022/10/15 00:59:43;;;;;;;1.00;1.00;;;;;;;;;;5071921;28;20212;-84
2022/10/15 01:02:11;;;;;;;1.27;0.93;;;;;;;;;;5071367;28;20212;-85
2022/10/15 01:04:38;;;;;;;3.23;0.97;;;;;;;;;;5065924;28;20198;-84
2022/10/15 01:07:05;;;;;;;1.17;1.17;;;;;;;;;;5051345;28;20194;-85
2022/10/15 01:09:32;;;;;;;2.20;1.30;;;;;;;;;;5051466;28;20682;-82
2022/10/15 01:11:59;;;;;;;1.27;1.17;;;;;;;;;;5051531;28;20580;-83
2022/10/15 01:14:37;;;;;;;2.97;1.00;;;;;;;;;;5051819;28;20226;-82
2022/10/15 01:17:05;;;;;;;1.13;1.00;;;;;;;;;;5051283;28;20677;-83
2022/10/15 01:19:42;;;;;;;0.90;0.90;;;;;;;;;;5051778;28;20220;-84
2022/10/15 01:22:11;;;;;;;0.97;0.97;;;;;;;;;;5051467;28;20201;-84
2022/10/15 01:24:49;;;;;;;1.03;1.03;;;;;;;;;;5051712;28;20289;-83
2022/10/15 01:27:20;;;;;;;1.00;1.00;;;;;;;;;;5051114;28;20657;-83
2022/10/15 01:29:54;;;;;;;1.27;1.17;;;;;;;;;;5051763;28;20195;-83
2022/10/15 01:32:25;;;;;;;1.90;1.10;;;;;;;;;;5051476;28;20237;-84
2022/10/15 01:34:55;;;;;;;0.97;0.97;;;;;;;;;;5051501;28;20623;-84
2022/10/15 01:37:24;;;;;;;1.00;1.00;;;;;;;;;;5050967;28;20674;-84
2022/10/15 01:39:52;;;;;;;1.03;1.00;;;;;;;;;;5051668;28;20674;-84
2022/10/15 01:42:24;;;;;;;1.10;1.10;;;;;;;;;;5051093;28;20233;-84
2022/10/15 01:44:54;;;;;;;1.10;1.10;;;;;;;;;;5051311;28;20221;-84
2022/10/15 01:47:24;;;;;;;1.33;1.30;;;;;;;;;;5051281;28;20230;-83
2022/10/15 01:49:53;;;;;;;1.80;1.17;;;;;;;;;;5055302;28;20210;-84
2022/10/15 01:52:24;;;;;;;1.00;1.00;;;;;;;;;;5054680;28;20678;-83
2022/10/15 01:54:52;;;;;;;1.10;1.10;;;;;;;;;;5055242;28;20237;-84
2022/10/15 01:57:20;;;;;;;1.30;1.20;;;;;;;;;;5054703;28;20705;-84
2022/10/15 01:59:47;;;;;;;1.43;1.37;;;;;;;;;;5055494;28;20205;-84
2022/10/15 02:02:14;;;;;;;1.33;1.23;;;;;;;;;;5054312;28;20203;-85
2022/10/15 02:04:43;;;;;;;1.30;1.30;;;;;;;;;;5054807;28;20218;-85
2022/10/15 02:07:12;;;;;;;1.27;1.27;;;;;;;;;;5054645;28;20216;-85
2022/10/15 02:09:43;;;;;;;1.43;1.40;;;;;;;;;;5054667;28;20578;-85
2022/10/15 02:12:17;;;;;;;1.43;1.33;;;;;;;;;;5054264;28;20217;-85
2022/10/15 02:14:48;;;;;;;1.60;1.50;;;;;;;;;;5054347;28;20642;-84
2022/10/15 02:17:15;;;;;;;1.50;1.40;;;;;;;;;;5054187;28;20241;-84
2022/10/15 02:19:48;;;;;;;1.70;1.60;;;;;;;;;;5054559;28;20202;-84
2022/10/15 02:22:17;;;;;;;1.37;1.37;;;;;;;;;;5053855;28;21226;-84
2022/10/15 02:24:46;;;;;;;1.33;1.33;;;;;;;;;;5054686;28;20218;-84
2022/10/15 02:27:15;;;;;;;1.93;1.83;;;;;;;;;;5053973;28;20213;-84
2022/10/15 02:29:43;;;;;;;1.83;1.73;;;;;;;;;;5054295;28;20225;-84
2022/10/15 02:32:11;;;;;;;1.73;1.63;;;;;;;;;;5053565;28;20566;-83
2022/10/15 02:34:40;;;;;;;1.90;1.80;;;;;;;;;;5053833;28;20589;-84
2022/10/15 02:37:09;;;;;;;1.90;1.80;;;;;;;;;;5053790;28;20205;-84
2022/10/15 02:39:36;;;;;;;1.87;1.77;;;;;;;;;;5054022;28;20210;-83
2022/10/15 02:42:03;;;;;;;1.87;1.77;;;;;;;;;;5053719;28;20202;-83
2022/10/15 02:44:31;;;;;;;2.10;2.00;;;;;;;;;;5053838;28;20243;-83
2022/10/15 02:46:58;;;;;;;1.80;1.70;;;;;;;;;;5053305;28;20206;-84
2022/10/15 02:49:26;;;;;;;2.00;1.63;;;;;;;;;;5053700;28;20217;-83
2022/10/15 02:51:53;;;;;;;1.87;1.77;;;;;;;;;;5054134;28;20194;-83
2022/10/15 02:54:22;;;;;;;2.30;1.93;;;;;;;;;;5052529;28;20237;-83
2022/10/15 02:56:49;;;;;;;1.87;1.77;;;;;;;;;;5073655;28;20213;-83
2022/10/15 02:59:17;;;;;;;1.97;1.87;;;;;;;;;;5072515;28;20240;-83
2022/10/15 03:01:44;;;;;;;5.07;1.90;;;;;;;;;;5074314;28;20209;-83
2022/10/15 03:04:11;;;;;;;2.10;2.00;;;;;;;;;;5074222;28;20312;-83
2022/10/15 03:06:38;;;;;;;2.37;2.20;;;;;;;;;;5076671;28;20232;-83
2022/10/15 03:09:06;;;;;;;4.70;2.47;;;;;;;;;;5075698;28;20237;-83
2022/10/15 03:11:34;;;;;;;2.37;2.27;;;;;;;;;;5077133;28;20202;-83
2022/10/15 03:14:01;;;;;;;2.93;2.67;;;;;;;;;;5076934;28;20229;-83
2022/10/15 03:16:28;;;;;;;2.30;2.10;;;;;;;;;;5078308;28;20232;-82
2022/10/15 03:18:55;;;;;;;2.80;2.60;;;;;;;;;;5077249;28;20700;-83
2022/10/15 03:21:22;;;;;;;2.57;2.40;;;;;;;;;;5075551;28;20212;-83
2022/10/15 03:23:49;;;;;;;2.67;2.47;;;;;;;;;;5074727;28;20233;-83
2022/10/15 03:26:16;;;;;;;2.73;2.53;;;;;;;;;;5074161;28;20584;-83
2022/10/15 03:28:45;;;;;;;3.03;2.80;;;;;;;;;;5073329;28;20327;-83
2022/10/15 03:31:13;;;;;;;2.90;2.70;;;;;;;;;;5073740;28;20212;-83
2022/10/15 03:33:40;;;;;;;2.43;2.33;;;;;;;;;;5072838;28;20236;-83
2022/10/15 03:36:07;;;;;;;2.70;2.50;;;;;;;;;;5073934;28;20233;-83
2022/10/15 03:38:35;;;;;;;2.77;2.57;;;;;;;;;;5073063;28;20737;-83
2022/10/15 03:41:04;;;;;;;2.83;2.57;;;;;;;;;;5074865;28;20205;-82
2022/10/15 03:43:31;;;;;;;2.97;2.77;;;;;;;;;;5060137;28;20662;-82
2022/10/15 03:46:03;;;;;;;3.40;3.10;;;;;;;;;;5053015;28;20247;-83
2022/10/15 03:48:30;;;;;;;4.67;3.63;;;;;;;;;;5052389;28;20233;-83
2022/10/15 03:50:58;;;;;;;5.23;4.10;;;;;;;;;;5053188;28;20554;-83
2022/10/15 03:53:25;;;;;;;6.33;5.00;;;;;;;;;;5052248;28;20234;-83
2022/10/15 03:55:52;;;;;;;8.37;5.70;;;;;;;;;;5052605;28;20233;-83
2022/10/15 03:58:19;;;;;;;13.87;6.63;;;;;;;;;;5052029;28;20616;-83
2022/10/15 04:00:46;;;;;;;10.73;7.30;;;;;;;;;;5052790;28;20210;-83
2022/10/15 04:03:15;;;;;;;12.63;7.23;;;;;;;;;;5064772;28;20251;-83
2022/10/15 04:05:42;;;;;;;12.30;7.50;;;;;;;;;;5072618;28;20229;-83
2022/10/15 04:08:09;;;;;;;12.17;7.57;;;;;;;;;;5071870;28;20233;-83
2022/10/15 04:10:37;;;;;;;13.00;8.07;;;;;;;;;;5072654;28;20216;-83
2022/10/15 04:13:04;;;;;;;13.90;7.57;;;;;;;;;;5072116;28;20233;-83
2022/10/15 04:15:31;;;;;;;12.13;7.93;;;;;;;;;;5072360;28;20233;-83
2022/10/15 04:17:58;;;;;;;21.30;8.90;;;;;;;;;;5071724;28;20233;-83
2022/10/15 04:20:26;;;;;;;14.17;8.40;;;;;;;;;;5072517;28;20205;-83
2022/10/15 04:22:53;;;;;;;16.37;8.43;;;;;;;;;;5071668;28;20602;-82
2022/10/15 04:25:20;;;;;;;15.73;8.40;;;;;;;;;;5071957;28;20229;-82
2022/10/15 04:27:48;;;;;;;14.43;7.97;;;;;;;;;;5071432;28;20233;-83
2022/10/15 04:30:15;;;;;;;13.30;7.77;;;;;;;;;;5072609;28;20205;-83
2022/10/15 04:32:42;;;;;;;15.10;8.10;;;;;;;;;;5071559;28;20240;-83
2022/10/15 04:35:09;;;;;;;14.83;8.17;;;;;;;;;;5072003;28;20221;-83
2022/10/15 04:37:38;;;;;;;14.43;7.60;;;;;;;;;;5070320;28;20228;-83
2022/10/15 04:40:05;;;;;;;12.13;6.90;;;;;;;;;;5072146;28;20208;-83
2022/10/15 04:42:33;;;;;;;11.83;6.83;;;;;;;;;;5071491;28;20232;-83
2022/10/15 04:45:00;;;;;;;11.67;6.07;;;;;;;;;;5072022;28;20721;-82
2022/10/15 04:47:27;;;;;;;11.80;6.83;;;;;;;;;;5071402;28;20692;-83
2022/10/15 04:49:54;;;;;;;9.53;6.67;;;;;;;;;;5072216;28;20296;-82
2022/10/15 04:52:21;;;;;;;13.17;6.33;;;;;;;;;;5071480;28;20240;-83
2022/10/15 04:54:49;;;;;;;9.97;5.70;;;;;;;;;;5069588;28;20244;-83
2022/10/15 04:57:17;;;;;;;9.33;5.33;;;;;;;;;;5084318;23;20244;-89
2022/10/15 04:59:44;;;;;;;8.47;5.57;;;;;;;;;;5060321;28;20564;-89
2022/10/15 05:02:11;;;;;;;7.90;5.10;;;;;;;;;;5052629;28;20206;-88
2022/10/15 05:04:38;;;;;;;8.97;4.87;;;;;;;;;;5052962;28;20206;-87
2022/10/15 05:07:05;;;;;;;9.03;4.90;;;;;;;;;;5052662;28;20249;-87
2022/10/15 05:09:32;;;;;;;8.90;5.10;;;;;;;;;;5053076;28;20229;-88
2022/10/15 05:12:00;;;;;;;7.50;4.37;;;;;;;;;;5052492;28;20198;-88
2022/10/15 05:14:28;;;;;;;8.53;4.80;;;;;;;;;;5053953;28;20224;-88
2022/10/15 05:16:55;;;;;;;7.53;3.93;;;;;;;;;;5057063;28;20237;-88
2022/10/15 05:19:22;;;;;;;10.10;3.90;;;;;;;;;;5053287;28;20230;-88
2022/10/15 05:21:49;;;;;;;6.10;4.00;;;;;;;;;;5053547;28;20205;-88
2022/10/15 05:24:16;;;;;;;6.93;3.93;;;;;;;;;;5055709;28;20236;-88
2022/10/15 05:26:43;;;;;;;5.13;3.67;;;;;;;;;;5056780;28;20720;-88
2022/10/15 05:29:12;;;;;;;6.57;4.03;;;;;;;;;;5056529;28;20233;-88
2022/10/15 05:31:39;;;;;;;5.87;3.97;;;;;;;;;;5056987;28;20213;-88
2022/10/15 05:34:07;;;;;;;6.70;3.80;;;;;;;;;;5056180;28;20248;-88
2022/10/15 05:36:35;;;;;;;4.00;3.27;;;;;;;;;;5057138;28;20279;-88
2022/10/15 05:39:03;;;;;;;4.90;3.50;;;;;;;;;;5055688;28;20645;-88
2022/10/15 05:41:31;;;;;;;5.07;3.33;;;;;;;;;;5056814;28;20225;-88
2022/10/15 05:43:59;;;;;;;4.97;3.43;;;;;;;;;;5053447;28;20252;-88
2022/10/15 05:46:27;;;;;;;4.10;3.30;;;;;;;;;;5056403;28;20612;-88
2022/10/15 05:48:55;;;;;;;5.03;3.53;;;;;;;;;;5055423;28;20283;-88
2022/10/15 05:51:23;;;;;;;5.33;3.77;;;;;;;;;;5056210;28;20213;-88
2022/10/15 05:53:52;;;;;;;4.70;3.23;;;;;;;;;;5053420;28;20724;-82
2022/10/15 05:56:19;;;;;;;7.07;4.60;;;;;;;;;;5054122;28;20241;-80
2022/10/15 05:58:46;;;;;;;3.97;2.90;;;;;;;;;;5053731;28;20233;-82
2022/10/15 06:01:14;;;;;;;4.93;3.07;;;;;;;;;;5055321;28;20218;-85
2022/10/15 06:03:43;;;;;;;3.43;3.10;;;;;;;;;;5055286;28;20234;-86
2022/10/15 06:06:14;;;;;;;4.10;3.00;;;;;;;;;;5055308;28;20222;-85
2022/10/15 06:08:41;;;;;;;4.63;3.50;;;;;;;;;;5054596;28;20245;-86
2022/10/15 06:11:08;;;;;;;4.27;3.50;;;;;;;;;;5055187;28;20732;-86
2022/10/15 06:13:35;;;;;;;4.63;3.30;;;;;;;;;;5054370;28;20848;-85
2022/10/15 06:16:04;;;;;;;4.47;3.57;;;;;;;;;;5054500;28;20646;-84
2022/10/15 06:18:31;;;;;;;4.43;3.53;;;;;;;;;;5054007;28;20253;-84
2022/10/15 06:21:08;;;;;;;5.63;3.83;;;;;;;;;;5054796;28;20233;-85
2022/10/15 06:23:36;;;;;;;5.43;3.60;;;;;;;;;;5054189;28;20237;-84
2022/10/15 06:26:04;;;;;;;5.20;3.77;;;;;;;;;;5054433;28;20225;-84
2022/10/15 06:28:31;;;;;;;5.23;4.23;;;;;;;;;;5053587;28;20245;-84
2022/10/15 06:30:59;;;;;;;6.53;5.03;;;;;;;;;;5054183;28;20202;-85
2022/10/15 06:33:26;;;;;;;8.03;5.30;;;;;;;;;;5054062;28;20237;-85
2022/10/15 06:35:53;;;;;;;8.13;5.60;;;;;;;;;;5053071;28;20233;-85
2022/10/15 06:38:22;;;;;;;9.13;5.80;;;;;;;;;;5053617;28;20234;-85
2022/10/15 06:40:49;;;;;;;12.03;6.27;;;;;;;;;;5054601;28;20206;-85
2022/10/15 06:43:16;;;;;;;10.40;6.20;;;;;;;;;;5053806;28;20233;-84
2022/10/15 06:45:44;;;;;;;9.27;6.17;;;;;;;;;;5054019;28;20230;-85
2022/10/15 06:48:12;;;;;;;10.13;6.33;;;;;;;;;;5053359;28;20697;-84
2022/10/15 06:50:39;;;;;;;8.17;5.43;;;;;;;;;;5054427;28;20210;-85
2022/10/15 06:53:07;;;;;;;6.47;5.03;;;;;;;;;;5053378;28;20325;-85
2022/10/15 06:55:37;;;;;;;9.10;5.63;;;;;;;;;;5053262;28;20574;-85
2022/10/15 06:58:06;;;;;;;9.00;6.17;;;;;;;;;;5053992;28;20265;-85
2022/10/15 07:00:34;;;;;;;10.50;6.77;;;;;;;;;;5054410;28;20319;-86
2022/10/15 07:03:03;;;;;;;8.90;6.27;;;;;;;;;;5053652;28;20237;-87
2022/10/15 07:05:30;;;;;;;9.73;6.87;;;;;;;;;;5054095;28;20245;-86
2022/10/15 07:07:57;;;;;;;11.07;6.57;;;;;;;;;;5053082;28;20238;-86
2022/10/15 07:10:25;;;;;;;11.20;6.43;;;;;;;;;;5054368;28;20241;-86
2022/10/15 07:12:54;;;;;;;9.67;6.33;;;;;;;;;;5053559;28;20234;-86
2022/10/15 07:15:21;;;;;;;8.70;7.00;;;;;;;;;;5053571;28;20213;-86
2022/10/15 07:17:49;;;;;;;11.13;7.27;;;;;;;;;;5053250;28;20976;-85
2022/10/15 07:20:16;;;;;;;10.73;7.73;;;;;;;;;;5053666;28;20221;-86
2022/10/15 07:22:43;;;;;;;14.27;7.93;;;;;;;;;;5053212;28;20697;-85
2022/10/15 07:25:11;;;;;;;15.93;8.57;;;;;;;;;;5054351;28;20206;-79
2022/10/15 07:27:38;;;;;;;11.03;7.17;;;;;;;;;;5055111;28;20238;-86
2022/10/15 07:30:07;;;;;;;11.93;7.33;;;;;;;;;;5056023;28;20216;-81
2022/10/15 07:32:35;;;;;;;13.97;7.90;;;;;;;;;;5052928;28;20226;-81
2022/10/15 07:35:02;;;;;;;14.27;8.03;;;;;;;;;;5054013;28;20194;-82
2022/10/15 07:37:30;;;;;;;16.53;8.60;;;;;;;;;;5052694;28;20238;-81
2022/10/15 07:39:59;;;;;;;14.70;8.50;;;;;;;;;;5053731;28;20205;-81
2022/10/15 07:42:26;;;;;;;13.13;8.40;;;;;;;;;;5052696;28;20237;-82
2022/10/15 07:44:54;;;;;;;14.03;7.83;;;;;;;;;;5053155;28;20197;-81
2022/10/15 07:47:23;;;;;;;13.10;8.10;;;;;;;;;;5052510;28;20237;-81
2022/10/15 07:49:50;;;;;;;20.47;7.83;;;;;;;;;;5053526;28;20304;-81
2022/10/15 07:52:17;;;;;;;13.63;8.30;;;;;;;;;;5052603;28;20233;-81
2022/10/15 07:54:45;;;;;;;10.70;7.17;;;;;;;;;;5053492;28;20205;-82
2022/10/15 07:57:12;;;;;;;14.27;8.00;;;;;;;;;;5052735;28;20230;-81
2022/10/15 07:59:39;;;;;;;14.27;9.00;;;;;;;;;;5052957;28;20296;-81
2022/10/15 08:02:12;;;;;;;9.23;7.03;;;;;;;;;;5052327;28;20213;-81
2022/10/15 08:04:41;;;;;;;7.87;6.63;;;;;;;;;;5053674;28;20210;-81
2022/10/15 08:07:08;;;;;;;15.60;9.37;;;;;;;;;;5052773;28;20228;-81
2022/10/15 08:09:35;;;;;;;12.47;9.10;;;;;;;;;;5052573;28;20206;-81
2022/10/15 08:12:02;;;;;;;7.77;6.97;;;;;;;;;;5052584;28;20209;-80
2022/10/15 08:14:29;;;;;;;7.13;6.43;;;;;;;;;;5052784;28;20709;-81
2022/10/15 08:16:56;;;;;;;8.07;6.97;;;;;;;;;;5052655;28;20226;-82
2022/10/15 08:19:23;;;;;;;7.80;7.00;;;;;;;;;;5052995;28;20214;-81
2022/10/15 08:21:52;;;;;;;4.27;3.80;;;;;;;;;;5052812;28;20210;-81
2022/10/15 08:24:19;;;;;;;4.10;3.80;;;;;;;;;;5052512;28;20234;-81
2022/10/15 08:26:46;;;;;;;4.73;4.23;;;;;;;;;;5052525;28;20218;-80
2022/10/15 08:29:14;;;;;;;3.70;3.40;;;;;;;;;;5056733;28;20227;-80
2022/10/15 08:31:41;;;;;;;3.10;2.43;;;;;;;;;;5072841;28;20220;-80
2022/10/15 08:34:08;;;;;;;3.97;2.40;;;;;;;;;;5072208;28;20248;-81
2022/10/15 08:36:35;;;;;;;2.63;2.43;;;;;;;;;;5072477;28;20233;-80
2022/10/15 08:39:06;;;;;;;2.37;2.27;;;;;;;;;;5071058;28;20237;-80
2022/10/15 08:41:35;;;;;;;2.33;2.23;;;;;;;;;;5072130;28;20640;-81
2022/10/15 08:44:02;;;;;;;2.00;1.90;;;;;;;;;;5071238;28;20892;-81
2022/10/15 08:46:34;;;;;;;2.07;1.97;;;;;;;;;;5072301;28;20590;-81
2022/10/15 08:49:01;;;;;;;2.00;1.90;;;;;;;;;;5071937;28;20588;-80
2022/10/15 08:51:30;;;;;;;2.20;2.00;;;;;;;;;;5072893;28;20205;-80
2022/10/15 08:53:59;;;;;;;2.10;1.90;;;;;;;;;;5072228;28;20233;-79
2022/10/15 08:56:31;;;;;;;2.10;2.00;;;;;;;;;;5072452;28;20597;-76
2022/10/15 08:59:02;;;;;;;1.90;1.80;;;;;;;;;;5070129;28;20651;-78
2022/10/15 09:01:32;;;;;;;1.90;1.80;;;;;;;;;;5056692;28;20217;-79
2022/10/15 09:04:05;;;;;;;1.70;1.60;;;;;;;;;;5056028;28;20238;-78
2022/10/15 09:06:34;;;;;;;1.80;1.70;;;;;;;;;;5056603;28;20224;-78
2022/10/15 09:09:07;;;;;;;1.87;1.70;;;;;;;;;;5055379;28;20608;-78
2022/10/15 09:11:39;;;;;;;1.40;1.30;;;;;;;;;;5056862;28;20199;-78
2022/10/15 09:14:09;;;;;;;1.67;1.30;;;;;;;;;;5056392;28;20234;-77
2022/10/15 09:16:38;;;;;;;2.40;1.30;;;;;;;;;;5056376;28;20226;-79
2022/10/15 09:19:06;;;;;;;1.83;1.50;;;;;;;;;;5054917;28;20340;-79
2022/10/15 09:21:36;;;;;;;1.23;1.07;;;;;;;;;;5036156;28;20211;-79
2022/10/15 09:24:03;;;;;;;1.17;1.17;;;;;;;;;;5035030;28;20234;-77
2022/10/15 09:26:33;;;;;;;1.47;1.27;;;;;;;;;;5035279;28;20740;-77
2022/10/15 09:29:06;;;;;;;2.13;1.17;;;;;;;;;;5034913;28;20249;-78
2022/10/15 09:31:35;;;;;;;1.23;1.10;;;;;;;;;;5035587;28;20246;-78
2022/10/15 09:34:06;;;;;;;1.27;1.17;;;;;;;;;;5049193;28;20724;-78
2022/10/15 09:36:36;;;;;;;1.10;1.00;;;;;;;;;;5055154;28;20236;-78
2022/10/15 09:39:06;;;;;;;1.00;1.00;;;;;;;;;;5054198;28;20704;-79
2022/10/15 09:41:36;;;;;;;0.93;0.93;;;;;;;;;;5055035;28;20217;-78
2022/10/15 09:44:10;;;;;;;1.53;1.43;;;;;;;;;;5054280;28;20234;-79
2022/10/15 09:46:43;;;;;;;1.40;1.30;;;;;;;;;;5054448;28;20222;-79
2022/10/15 09:49:17;;;;;;;1.30;1.23;;;;;;;;;;5053989;28;20234;-79
2022/10/15 09:51:46;;;;;;;1.40;1.30;;;;;;;;;;5054922;28;20606;-79
2022/10/15 09:54:18;;;;;;;1.27;1.20;;;;;;;;;;5034624;28;20246;-76
2022/10/15 09:56:47;;;;;;;1.20;1.20;;;;;;;;;;5049959;28;20229;-77
2022/10/15 09:59:17;;;;;;;1.40;1.40;;;;;;;;;;5053962;28;20244;-78
2022/10/15 10:01:56;;;;;;;1.93;1.37;;;;;;;;;;5054889;28;20190;-77
2022/10/15 10:04:26;;;;;;;2.43;1.60;;;;;;;;;;5054171;28;20689;-77
2022/10/15 10:06:55;;;;;;;1.30;1.30;;;;;;;;;;5054673;28;20222;-76
2022/10/15 10:09:24;;;;;;;1.83;1.70;;;;;;;;;;5049313;28;20222;-78
2022/10/15 10:11:52;;;;;;;1.83;1.73;;;;;;;;;;5053968;28;20217;-78
2022/10/15 10:14:24;;;;;;;2.00;1.90;;;;;;;;;;5053265;28;20244;-78
2022/10/15 10:17:08;;;;;;;1.90;1.80;;;;;;;;;;5045194;28;20227;-77
2022/10/15 10:19:35;;;;;;;3.07;2.10;;;;;;;;;;5049552;28;20277;-78
2022/10/15 10:22:07;;;;;;;1.90;1.80;;;;;;;;;;5036831;28;20213;-78
2022/10/15 10:24:34;;;;;;;2.00;1.90;;;;;;;;;;5053754;28;20207;-78
2022/10/15 10:27:02;;;;;;;2.17;1.70;;;;;;;;;;5052330;28;20229;-79
2022/10/15 10:29:31;;;;;;;1.60;1.50;;;;;;;;;;5053159;28;20213;-78
2022/10/15 10:31:58;;;;;;;2.03;1.83;;;;;;;;;;5053188;28;20206;-78
2022/10/15 10:34:27;;;;;;;3.10;1.70;;;;;;;;;;5053432;28;20186;-78
2022/10/15 10:36:55;;;;;;;2.53;2.10;;;;;;;;;;5052960;28;20237;-79
2022/10/15 10:39:25;;;;;;;2.50;2.00;;;;;;;;;;5053555;28;20221;-78
2022/10/15 10:41:54;;;;;;;3.17;2.17;;;;;;;;;;5053509;28;20202;-78
2022/10/15 10:44:23;;;;;;;2.83;2.63;;;;;;;;;;5053080;28;20221;-79
2022/10/15 10:47:04;;;;;;;3.17;2.70;;;;;;;;;;5052884;28;20226;-78
2022/10/15 10:49:32;;;;;;;4.07;3.40;;;;;;;;;;5052842;28;20222;-78
2022/10/15 10:51:59;;;;;;;3.00;2.80;;;;;;;;;;5052551;28;20248;-79
2022/10/15 10:54:27;;;;;;;2.93;2.73;;;;;;;;;;5052768;28;20206;-78
2022/10/15 10:56:55;;;;;;;8.20;2.83;;;;;;;;;;5053197;28;20804;-86
2022/10/15 10:59:26;;;;;;;4.10;3.70;;;;;;;;;;5053358;28;20225;-86
2022/10/15 11:01:55;;;;;;;7.70;6.27;;;;;;;;;;5053250;28;20228;-84
2022/10/15 11:04:26;;;;;;;6.77;6.13;;;;;;;;;;5053465;28;20662;-87
2022/10/15 11:06:59;;;;;;;5.23;4.73;;;;;;;;;;5050359;28;20222;-84
2022/10/15 11:09:46;;;;;;;5.97;4.43;;;;;;;;;;5051868;28;20312;-86
2022/10/15 11:12:30;;;;;;;5.63;5.13;;;;;;;;;;5051618;28;20207;-85
2022/10/15 11:15:02;;;;;;;4.93;4.53;;;;;;;;;;5053215;28;20201;-87
2022/10/15 11:17:35;;;;;;;2.93;2.70;;;;;;;;;;5052931;28;20237;-85
2022/10/15 11:20:07;;;;;;;7.57;5.60;;;;;;;;;;5053593;28;20194;-87
2022/10/15 11:22:43;;;;;;;7.40;6.70;;;;;;;;;;5034719;28;20233;-85
2022/10/15 11:25:16;;;;;;;8.87;7.97;;;;;;;;;;5051238;28;20202;-86
2022/10/15 11:27:48;;;;;;;8.40;7.47;;;;;;;;;;5052865;28;20234;-85
2022/10/15 11:30:22;;;;;;;6.13;5.53;;;;;;;;;;5052540;28;20202;-86
2022/10/15 11:32:57;;;;;;;4.00;3.77;;;;;;;;;;5053151;28;20240;-87
2022/10/15 11:35:33;;;;;;;3.40;3.20;;;;;;;;;;5053638;28;20202;-87
2022/10/15 11:38:04;;;;;;;32.10;20.73;;;;;;;;;;5052946;28;20238;-88
2022/10/15 11:40:37;;;;;;;50.97;35.40;;;;;;;;;;5053696;28;20197;-82
2022/10/15 11:43:09;;;;;;;8.53;7.43;;;;;;;;;;5052354;28;20249;-82
2022/10/15 11:45:54;;;;;;;11.70;6.63;;;;;;;;;;5033366;28;20618;-88
2022/10/15 11:48:26;;;;;;;4.63;4.20;;;;;;;;;;5033431;28;20634;-86
2022/10/15 11:50:57;;;;;;;6.43;5.38;;;;;;;;;;5034374;28;20198;-88
2022/10/15 11:53:30;;;;;;;8.80;7.90;;;;;;;;;;5033760;28;20240;-88
2022/10/15 11:56:01;;;;;;;18.50;15.00;;;;;;;;;;5033984;28;20234;-88
2022/10/15 11:58:30;;;;;;;5.47;4.95;;;;;;;;;;5032873;28;20614;-90
2022/10/15 12:01:01;;;;;;;2.45;2.25;;;;;;;;;;5033679;28;20215;-88
2022/10/15 12:03:29;;;;;;;3.67;3.38;;;;;;;;;;5033232;28;20231;-88
2022/10/15 12:06:00;;;;;;;2.40;2.30;;;;;;;;;;5039176;28;20227;-88
2022/10/15 12:08:30;;;;;;;3.33;3.03;;;;;;;;;;5073932;28;20225;-88
2022/10/15 12:11:09;;;;;;;2.25;2.10;;;;;;;;;;5054606;28;20194;-89
2022/10/15 12:13:39;;;;;;;1.80;1.60;;;;;;;;;;5053005;28;20236;-89
2022/10/15 12:16:16;;;;;;;2.80;1.92;;;;;;;;;;5053632;28;20229;-89
2022/10/15 12:18:46;;;;;;;1.73;1.63;;;;;;;;;;5052614;28;20244;-88
2022/10/15 12:21:34;;;;;;;3.17;2.95;;;;;;;;;;5053913;28;20206;-89
2022/10/15 12:24:03;;;;;;;3.53;3.15;;;;;;;;;;5049944;28;20612;-87
2022/10/15 12:26:32;;;;;;;3.38;3.08;;;;;;;;;;5053165;28;20218;-88
2022/10/15 12:29:00;;;;;;;1.60;1.50;;;;;;;;;;5052294;28;20230;-88
2022/10/15 12:31:43;;;;;;;3.97;2.90;;;;;;;;;;5053200;28;20703;-88
2022/10/15 12:34:25;;;;;;;3.45;3.15;;;;;;;;;;5052264;28;20244;-88
2022/10/15 12:37:00;;;;;;;2.95;1.90;;;;;;;;;;5054243;28;20324;-88
2022/10/15 12:39:28;;;;;;;4.78;3.92;;;;;;;;;;5052849;28;20221;-86
2022/10/15 12:41:55;;;;;;;3.97;3.03;;;;;;;;;;5070440;28;20201;-86
2022/10/15 12:44:25;;;;;;;5.68;3.92;;;;;;;;;;5067041;28;20197;-86
2022/10/15 12:46:52;;;;;;;2.40;2.10;;;;;;;;;;5051835;28;20229;-86
2022/10/15 12:49:38;;;;;;;4.28;2.03;;;;;;;;;;5051476;28;20240;-85
2022/10/15 12:52:31;;;;;;;1.77;1.67;;;;;;;;;;5051817;28;20216;-87
2022/10/15 12:55:21;;;;;;;2.38;1.60;;;;;;;;;;5052432;28;20216;-88
2022/10/15 12:57:52;;;;;;;2.97;2.30;;;;;;;;;;5051103;28;20698;-87
2022/10/15 13:00:33;;;;;;;1.30;1.20;;;;;;;;;;5052079;28;20198;-89
2022/10/15 13:03:09;;;;;;;1.60;1.50;;;;;;;;;;5054625;28;20230;-91
2022/10/15 13:05:36;;;;;;;2.08;1.75;;;;;;;;;;5056381;28;20249;-89
2022/10/15 13:08:05;;;;;;;1.73;1.63;;;;;;;;;;5052802;28;20236;-88
2022/10/15 13:10:36;;;;;;;3.92;2.33;;;;;;;;;;5054940;28;20700;-89
2022/10/15 13:13:05;;;;;;;2.17;2.08;;;;;;;;;;5052831;28;20230;-87
2022/10/15 13:15:33;;;;;;;3.15;1.50;;;;;;;;;;5064097;28;20225;-87
2022/10/15 13:18:01;;;;;;;4.18;1.20;;;;;;;;;;5071540;28;20233;-88
2022/10/15 13:20:31;;;;;;;2.30;1.35;;;;;;;;;;5057758;28;20210;-88
2022/10/15 13:23:15;;;;;;;1.13;1.10;;;;;;;;;;5051764;28;20226;-88
2022/10/15 13:25:44;;;;;;;1.67;1.52;;;;;;;;;;5050559;28;20721;-87
2022/10/15 13:28:32;;;;;;;3.42;2.08;;;;;;;;;;5051835;28;20713;-91
2022/10/15 13:31:00;;;;;;;3.08;2.45;;;;;;;;;;5045570;28;20570;-87
2022/10/15 13:33:27;;;;;;;1.95;1.75;;;;;;;;;;5051785;28;20706;-90
2022/10/15 13:35:54;;;;;;;1.35;1.27;;;;;;;;;;5052956;28;20273;-88
2022/10/15 13:38:23;;;;;;;2.22;1.15;;;;;;;;;;5053958;28;20225;-88
2022/10/15 13:40:52;;;;;;;1.50;1.40;;;;;;;;;;5058919;28;20219;-88
2022/10/15 13:43:21;;;;;;;2.67;1.45;;;;;;;;;;5052917;28;20238;-89
2022/10/15 13:45:48;;;;;;;2.45;1.20;;;;;;;;;;5056430;28;20272;-86
2022/10/15 13:48:20;;;;;;;3.58;1.20;;;;;;;;;;5043373;28;20316;-86
2022/10/15 13:50:49;;;;;;;1.55;1.23;;;;;;;;;;5056082;28;20191;-87
2022/10/15 13:53:23;;;;;;;1.00;1.00;;;;;;;;;;5050359;28;20937;-87
2022/10/15 13:55:53;;;;;;;2.75;1.40;;;;;;;;;;5058185;28;20225;-88
2022/10/15 13:58:25;;;;;;;1.23;1.20;;;;;;;;;;5055745;28;20327;-88
2022/10/15 14:00:56;;;;;;;2.28;1.08;;;;;;;;;;5056160;28;20224;-87
2022/10/15 14:03:23;;;;;;;2.15;1.23;;;;;;;;;;5056062;28;20234;-89
2022/10/15 14:05:52;;;;;;;5.95;1.60;;;;;;;;;;5055787;28;20233;-91
2022/10/15 14:08:24;;;;;;;2.65;1.40;;;;;;;;;;5055366;28;20233;-91
2022/10/15 14:10:53;;;;;;;1.50;1.40;;;;;;;;;;5056089;28;20285;-90
2022/10/15 14:13:20;;;;;;;1.77;1.67;;;;;;;;;;5055462;28;20690;-91
2022/10/15 14:15:50;;;;;;;1.48;1.38;;;;;;;;;;5055980;28;20233;-88
2022/10/15 14:18:18;;;;;;;5.97;1.60;;;;;;;;;;5055273;28;20236;-87
2022/10/15 14:20:46;;;;;;;1.88;1.10;;;;;;;;;;5054606;28;20217;-85
2022/10/15 14:23:21;;;;;;;2.17;1.35;;;;;;;;;;5050304;28;20233;-83
2022/10/15 14:25:54;;;;;;;1.73;1.30;;;;;;;;;;5038231;28;20225;-84
2022/10/15 14:28:22;;;;;;;3.00;1.25;;;;;;;;;;5054085;28;20233;-87
2022/10/15 14:30:49;;;;;;;2.55;1.60;;;;;;;;;;5055544;28;20245;-86
2022/10/15 14:33:33;;;;;;;1.58;1.38;;;;;;;;;;5054640;28;20234;-85
2022/10/15 14:36:04;;;;;;;1.50;1.40;;;;;;;;;;5055543;28;20300;-87
2022/10/15 14:38:31;;;;;;;1.63;1.50;;;;;;;;;;5054882;28;20763;-85
2022/10/15 14:41:01;;;;;;;1.93;1.40;;;;;;;;;;5055793;28;20212;-86
2022/10/15 14:43:29;;;;;;;1.38;1.30;;;;;;;;;;5063850;28;20825;-88
2022/10/15 14:45:59;;;;;;;4.57;1.73;;;;;;;;;;5065854;28;20236;-88
2022/10/15 14:48:32;;;;;;;0.88;0.82;;;;;;;;;;5063553;28;20226;-88
2022/10/15 14:51:02;;;;;;;1.40;1.30;;;;;;;;;;5063883;28;20190;-87
2022/10/15 14:53:31;;;;;;;1.67;1.58;;;;;;;;;;5066214;28;20230;-86